Time;durP1;ratioP1;P1;durP2;ratioP2;P2;SDS_P1;SDS_P2;PMS_P1;PMS_P2;Temp;Humidity;BMP_temperature;BMP_pressure;BME280_temperature;BME280_humidity;BME280_pressure;Samples;Min_cycle;Max_cycle;Signal;HPM_P1;HPM_P2
2023/03/26 00:01:16;;;;;;;;;;;;;;;10.75;71.26;94672.94;5056251;28;1048;-57
2023/03/26 00:03:45;;;;;;;;;;;;;;;11.05;71.02;94675.81;5056082;28;1108;-57
2023/03/26 00:06:13;;;;;;;;;;;;;;;11.43;69.95;94670.56;5055893;28;1076;-57
2023/03/26 00:08:40;;;;;;;;;;;;;;;11.69;69.96;94682.75;5055911;28;990;-57
2023/03/26 00:11:08;;;;;;;;;;;;;;;11.93;68.83;94688.94;5055871;28;1041;-57
2023/03/26 00:13:34;;;;;;;;;;;;;;;12.06;68.46;94686.50;5056138;28;1013;-57
2023/03/26 00:16:01;;;;;;;;;;;;;;;12.14;67.83;94689.13;5056046;28;1031;-57
2023/03/26 00:18:33;;;;;;;;;;;;;;;12.21;68.14;94690.03;5055669;28;1910;-57
2023/03/26 00:21:00;;;;;;;;;;;;;;;12.27;67.93;94696.50;5055814;28;1077;-57
2023/03/26 00:23:28;;;;;;;;;;;;;;;12.32;67.98;94690.63;5054271;28;1634;-57
2023/03/26 00:25:54;;;;;;;;;;;;;;;12.35;68.22;94688.41;5055487;28;1172;-58
2023/03/26 00:28:21;;;;;;;;;;;;;;;12.40;67.23;94685.97;5055889;28;985;-58
2023/03/26 00:30:48;;;;;;;;;;;;;;;12.43;67.25;94679.44;5055737;28;1020;-57
2023/03/26 00:33:20;;;;;;;;;;;;;;;12.39;67.42;94681.66;5055576;28;981;-57
2023/03/26 00:35:50;;;;;;;;;;;;;;;12.35;67.44;94684.88;5055745;28;1051;-57
2023/03/26 00:38:16;;;;;;;;;;;;;;;12.40;66.97;94677.13;5055129;28;1991;-57
2023/03/26 00:40:46;;;;;;;;;;;;;;;12.42;66.87;94675.09;5055386;28;1054;-58
2023/03/26 00:43:19;;;;;;;;;;;;;;;12.44;66.78;94667.69;5055550;28;1055;-58
2023/03/26 00:45:46;;;;;;;;;;;;;;;12.55;65.99;94653.00;5055287;28;1046;-58
2023/03/26 00:48:12;;;;;;;;;;;;;;;12.56;65.87;94655.50;5055114;28;1112;-58
2023/03/26 00:50:39;;;;;;;;;;;;;;;12.59;65.57;94663.16;5055221;28;965;-58
2023/03/26 00:53:05;;;;;;;;;;;;;;;12.43;66.10;94652.63;5055363;28;1048;-57
2023/03/26 00:55:31;;;;;;;;;;;;;;;12.19;67.16;94649.19;5054087;28;1161;-58
2023/03/26 00:57:57;;;;;;;;;;;;;;;12.05;67.56;94647.31;5055197;28;1913;-58
2023/03/26 01:00:30;;;;;;;;;;;;;;;12.09;67.05;94638.72;5054998;28;1029;-58
2023/03/26 01:02:57;;;;;;;;;;;;;;;12.12;66.90;94632.16;5054912;28;1164;-58
2023/03/26 01:05:44;;;;;;;;;;;;;;;12.11;66.88;94631.34;5054769;28;1097;-57
2023/03/26 01:08:15;;;;;;;;;;;;;;;11.98;67.25;94638.34;5033698;28;1167;-59
2023/03/26 01:10:42;;;;;;;;;;;;;;;11.89;67.44;94638.44;5055014;28;992;-59
2023/03/26 01:13:09;;;;;;;;;;;;;;;11.85;67.51;94633.56;5055069;28;1293;-60
2023/03/26 01:15:36;;;;;;;;;;;;;;;11.76;68.14;94638.19;5054883;28;1033;-59
2023/03/26 01:18:04;;;;;;;;;;;;;;;11.52;68.41;94632.00;5054584;28;2082;-58
2023/03/26 01:20:33;;;;;;;;;;;;;;;11.49;68.56;94636.88;5054756;28;1103;-58
2023/03/26 01:23:04;;;;;;;;;;;;;;;11.23;69.68;94648.78;5054511;28;1359;-58
2023/03/26 01:25:33;;;;;;;;;;;;;;;10.97;70.35;94649.13;5054812;28;1005;-58
2023/03/26 01:27:59;;;;;;;;;;;;;;;10.60;70.94;94653.28;5054302;28;1343;-58
2023/03/26 01:30:48;;;;;;;;;;;;;;;10.47;71.65;94658.34;5054580;28;1009;-59
2023/03/26 01:33:18;;;;;;;;;;;;;;;10.54;71.90;94660.16;5054313;28;1089;-58
2023/03/26 01:35:53;;;;;;;;;;;;;;;10.41;71.50;94662.53;5054248;28;1104;-58
2023/03/26 01:38:26;;;;;;;;;;;;;;;9.86;72.59;94664.13;5054007;28;1902;-58
2023/03/26 01:41:10;;;;;;;;;;;;;;;9.85;72.63;94669.66;5054168;28;1097;-59
2023/03/26 01:43:45;;;;;;;;;;;;;;;10.07;72.25;94668.97;5054412;28;1036;-59
2023/03/26 01:46:12;;;;;;;;;;;;;;;10.17;71.04;94663.44;5054053;28;1061;-59
2023/03/26 01:48:41;;;;;;;;;;;;;;;9.83;71.17;94666.31;5054147;28;1038;-59
2023/03/26 01:51:07;;;;;;;;;;;;;;;9.28;73.05;94673.97;5052860;28;965;-59
2023/03/26 01:53:36;;;;;;;;;;;;;;;9.24;73.62;94669.97;5053812;28;1060;-59
2023/03/26 01:56:12;;;;;;;;;;;;;;;9.50;73.07;94672.47;5054120;28;1021;-58
2023/03/26 01:59:07;;;;;;;;;;;;;;;9.55;73.49;94674.66;5054100;28;1910;-59
2023/03/26 02:01:43;;;;;;;;;;;;;;;9.48;73.49;94687.81;5045080;28;1319;-58
2023/03/26 02:04:27;;;;;;;;;;;;;;;9.22;74.52;94689.78;5053833;28;1065;-58
2023/03/26 02:06:57;;;;;;;;;;;;;;;9.11;74.79;94686.44;5053489;28;1149;-58
2023/03/26 02:09:26;;;;;;;;;;;;;;;9.31;74.11;94691.47;5053638;28;1042;-58
2023/03/26 02:11:52;;;;;;;;;;;;;;;9.47;73.62;94688.84;5053685;28;1015;-59
2023/03/26 02:14:19;;;;;;;;;;;;;;;9.57;73.01;94702.84;5053509;28;1075;-59
2023/03/26 02:16:45;;;;;;;;;;;;;;;9.47;72.52;94704.03;5053487;28;1041;-59
2023/03/26 02:19:14;;;;;;;;;;;;;;;9.38;73.14;94705.84;5053624;28;1983;-59
2023/03/26 02:21:40;;;;;;;;;;;;;;;9.48;72.82;94716.34;5053397;28;1092;-59
2023/03/26 02:24:06;;;;;;;;;;;;;;;9.56;72.34;94709.19;5053260;28;1340;-59
2023/03/26 02:26:34;;;;;;;;;;;;;;;9.54;73.42;94708.53;5053342;28;1331;-59
2023/03/26 02:29:00;;;;;;;;;;;;;;;9.60;73.40;94712.38;5053411;28;1059;-59
2023/03/26 02:31:27;;;;;;;;;;;;;;;9.72;73.21;94718.22;5053545;28;1085;-58
2023/03/26 02:33:54;;;;;;;;;;;;;;;9.88;71.69;94712.84;5052448;28;981;-59
2023/03/26 02:36:23;;;;;;;;;;;;;;;10.03;70.52;94709.53;5053256;28;962;-58
2023/03/26 02:38:50;;;;;;;;;;;;;;;10.28;68.94;94713.84;5053159;28;1910;-58
2023/03/26 02:41:16;;;;;;;;;;;;;;;10.52;67.76;94712.94;5053487;28;1052;-58
2023/03/26 02:43:42;;;;;;;;;;;;;;;10.69;67.04;94719.09;5053166;28;997;-59
2023/03/26 02:46:08;;;;;;;;;;;;;;;10.69;66.86;94720.94;5053157;28;1097;-59
2023/03/26 02:48:35;;;;;;;;;;;;;;;10.83;66.46;94722.91;5053370;28;969;-57
2023/03/26 02:51:01;;;;;;;;;;;;;;;11.02;65.81;94723.47;5053303;28;1035;-58
2023/03/26 02:53:30;;;;;;;;;;;;;;;11.05;65.23;94732.00;5053137;28;969;-58
2023/03/26 02:55:56;;;;;;;;;;;;;;;11.07;64.70;94735.31;5053325;28;965;-58
2023/03/26 02:58:24;;;;;;;;;;;;;;;11.07;64.72;94743.34;5053144;28;1977;-58
2023/03/26 03:00:53;;;;;;;;;;;;;;;10.98;64.91;94744.38;5053284;28;1023;-58
2023/03/26 03:03:23;;;;;;;;;;;;;;;10.96;64.83;94753.59;5051759;28;1105;-58
2023/03/26 03:05:50;;;;;;;;;;;;;;;10.93;65.16;94755.63;5053071;28;1189;-58
2023/03/26 03:08:20;;;;;;;;;;;;;;;10.89;65.32;94765.00;5052830;28;1041;-58
2023/03/26 03:10:59;;;;;;;;;;;;;;;10.85;65.12;94761.00;5052817;28;1054;-58
2023/03/26 03:13:26;;;;;;;;;;;;;;;10.70;65.97;94760.88;5052820;28;1066;-58
2023/03/26 03:15:52;;;;;;;;;;;;;;;10.49;65.85;94766.78;5053031;28;924;-58
2023/03/26 03:18:18;;;;;;;;;;;;;;;10.41;66.04;94766.78;5051684;28;1991;-58
2023/03/26 03:20:44;;;;;;;;;;;;;;;10.27;66.60;94765.59;5056859;28;1021;-58
2023/03/26 03:23:10;;;;;;;;;;;;;;;10.05;67.65;94766.28;5056708;28;1757;-58
2023/03/26 03:25:37;;;;;;;;;;;;;;;10.03;68.98;94766.44;5056973;28;966;-58
2023/03/26 03:28:03;;;;;;;;;;;;;;;10.13;68.18;94768.94;5056565;28;1211;-58
2023/03/26 03:30:29;;;;;;;;;;;;;;;10.26;66.61;94768.44;5056659;28;1147;-58
2023/03/26 03:32:57;;;;;;;;;;;;;;;10.37;65.99;94769.97;5057007;28;1040;-58
2023/03/26 03:35:24;;;;;;;;;;;;;;;10.56;65.30;94774.94;5056414;28;1048;-58
2023/03/26 03:37:50;;;;;;;;;;;;;;;10.59;65.13;94779.13;5056852;28;961;-57
2023/03/26 03:40:16;;;;;;;;;;;;;;;10.55;64.69;94774.09;5056346;28;2041;-58
2023/03/26 03:42:42;;;;;;;;;;;;;;;10.65;64.25;94776.59;5056702;28;1056;-58
2023/03/26 03:45:09;;;;;;;;;;;;;;;10.63;63.77;94781.28;5056604;28;1028;-58
2023/03/26 03:47:35;;;;;;;;;;;;;;;10.46;64.50;94780.47;5056270;28;1049;-57
2023/03/26 03:50:01;;;;;;;;;;;;;;;10.47;64.33;94782.16;5056612;28;981;-58
2023/03/26 03:52:27;;;;;;;;;;;;;;;10.47;64.22;94778.63;5056323;28;1285;-57
2023/03/26 03:54:55;;;;;;;;;;;;;;;10.26;64.19;94785.31;5056211;28;1231;-57
2023/03/26 03:57:22;;;;;;;;;;;;;;;10.13;65.57;94791.16;5056140;28;1061;-57
2023/03/26 03:59:48;;;;;;;;;;;;;;;10.03;66.01;94794.97;5056212;28;1918;-57
2023/03/26 04:02:24;;;;;;;;;;;;;;;9.78;66.17;94793.13;5056069;28;1073;-56
2023/03/26 04:04:51;;;;;;;;;;;;;;;9.68;67.26;94791.63;5056185;28;1036;-56
2023/03/26 04:07:17;;;;;;;;;;;;;;;9.82;67.40;94798.13;5055825;28;1032;-57
2023/03/26 04:09:43;;;;;;;;;;;;;;;9.93;67.13;94793.31;5056196;28;977;-57
2023/03/26 04:12:09;;;;;;;;;;;;;;;10.00;66.46;94797.97;5055895;28;1131;-56
2023/03/26 04:14:35;;;;;;;;;;;;;;;9.78;67.83;94800.31;5054988;28;1263;-57
2023/03/26 04:17:04;;;;;;;;;;;;;;;9.58;68.51;94808.63;5056080;28;1021;-57
2023/03/26 04:19:30;;;;;;;;;;;;;;;9.64;68.05;94811.63;5054747;28;1972;-57
2023/03/26 04:22:01;;;;;;;;;;;;;;;9.80;68.61;94811.66;5055615;28;973;-56
2023/03/26 04:24:37;;;;;;;;;;;;;;;9.81;68.40;94816.00;5055524;28;1538;-56
2023/03/26 04:27:05;;;;;;;;;;;;;;;9.82;68.25;94812.31;5055483;28;1404;-57
2023/03/26 04:29:37;;;;;;;;;;;;;;;9.83;68.82;94816.66;5055231;28;1036;-56
2023/03/26 04:32:05;;;;;;;;;;;;;;;9.84;68.82;94825.50;5054832;28;1013;-57
2023/03/26 04:34:33;;;;;;;;;;;;;;;9.81;68.65;94826.69;5055591;28;962;-57
2023/03/26 04:37:00;;;;;;;;;;;;;;;9.72;67.94;94822.31;5055327;28;1041;-57
2023/03/26 04:39:29;;;;;;;;;;;;;;;9.79;67.53;94834.03;5055493;28;2006;-57
2023/03/26 04:41:56;;;;;;;;;;;;;;;9.90;67.31;94836.38;5055314;28;1046;-57
2023/03/26 04:44:22;;;;;;;;;;;;;;;9.93;69.00;94849.38;5054050;28;1037;-55
2023/03/26 04:46:51;;;;;;;;;;;;;;;10.03;68.54;94841.22;5055584;28;1051;-58
2023/03/26 04:49:18;;;;;;;;;;;;;;;10.06;69.33;94848.09;5055378;28;1048;-59
2023/03/26 04:51:45;;;;;;;;;;;;;;;9.96;70.05;94854.41;5055346;28;1043;-58
2023/03/26 04:54:13;;;;;;;;;;;;;;;9.96;69.83;94854.41;5055230;28;1300;-58
2023/03/26 04:56:39;;;;;;;;;;;;;;;10.04;69.61;94861.59;5055207;28;1033;-57
2023/03/26 04:59:06;;;;;;;;;;;;;;;9.97;70.19;94864.06;5055225;28;1997;-57
2023/03/26 05:01:36;;;;;;;;;;;;;;;10.00;70.56;94867.41;5054852;28;1136;-57
2023/03/26 05:04:02;;;;;;;;;;;;;;;9.94;70.33;94868.91;5055118;28;1152;-58
2023/03/26 05:06:29;;;;;;;;;;;;;;;10.01;68.02;94880.63;5054628;28;1050;-59
2023/03/26 05:08:55;;;;;;;;;;;;;;;10.03;68.54;94883.13;5053908;28;970;-58
2023/03/26 05:11:21;;;;;;;;;;;;;;;10.13;68.06;94897.16;5053655;28;1060;-59
2023/03/26 05:13:47;;;;;;;;;;;;;;;10.14;69.24;94888.16;5054746;28;1061;-57
2023/03/26 05:16:13;;;;;;;;;;;;;;;10.13;67.18;94892.66;5054572;28;1054;-58
2023/03/26 05:18:39;;;;;;;;;;;;;;;10.37;64.85;94880.34;5054875;28;1917;-59
2023/03/26 05:21:05;;;;;;;;;;;;;;;10.59;64.06;94886.88;5054523;28;1201;-59
2023/03/26 05:23:32;;;;;;;;;;;;;;;10.75;65.50;94886.84;5054709;28;1312;-59
2023/03/26 05:25:58;;;;;;;;;;;;;;;10.83;66.97;94903.91;5054456;28;1107;-59
2023/03/26 05:28:25;;;;;;;;;;;;;;;10.87;67.76;94906.09;5054466;28;1564;-59
2023/03/26 05:30:52;;;;;;;;;;;;;;;10.84;68.15;94910.94;5054746;28;1041;-59
2023/03/26 05:33:18;;;;;;;;;;;;;;;10.94;65.98;94909.72;5054663;28;965;-59
2023/03/26 05:35:44;;;;;;;;;;;;;;;11.14;64.76;94912.06;5054267;28;1077;-59
2023/03/26 05:38:10;;;;;;;;;;;;;;;11.30;63.25;94905.81;5054457;28;1913;-59
2023/03/26 05:40:37;;;;;;;;;;;;;;;11.40;62.58;94919.88;5054272;28;1034;-58
2023/03/26 05:43:04;;;;;;;;;;;;;;;11.49;62.29;94923.34;5052687;28;966;-59
2023/03/26 05:45:31;;;;;;;;;;;;;;;11.62;61.92;94920.94;5054177;28;1037;-59
2023/03/26 05:47:57;;;;;;;;;;;;;;;11.67;61.43;94926.63;5053165;28;1024;-58
2023/03/26 05:50:23;;;;;;;;;;;;;;;11.82;59.66;94931.25;5052887;28;1048;-58
2023/03/26 05:52:49;;;;;;;;;;;;;;;11.91;58.67;94927.56;5054132;28;1020;-58
2023/03/26 05:55:17;;;;;;;;;;;;;;;11.89;59.16;94922.41;5053890;28;1049;-58
2023/03/26 05:57:43;;;;;;;;;;;;;;;11.91;59.28;94923.06;5054006;28;1013;-58
2023/03/26 06:00:12;;;;;;;;;;;;;;;12.02;57.80;94920.97;5054040;28;1902;-58
2023/03/26 06:02:38;;;;;;;;;;;;;;;11.90;59.13;94917.88;5054068;28;1048;-58
2023/03/26 06:05:04;;;;;;;;;;;;;;;12.11;57.01;94918.06;5053735;28;1121;-58
2023/03/26 06:07:32;;;;;;;;;;;;;;;12.84;55.55;94920.41;5053894;28;1059;-58
2023/03/26 06:09:58;;;;;;;;;;;;;;;12.93;54.15;94918.50;5053860;28;969;-58
2023/03/26 06:12:24;;;;;;;;;;;;;;;13.33;53.91;94919.97;5053408;28;1344;-58
2023/03/26 06:14:50;;;;;;;;;;;;;;;14.12;52.63;94919.41;5053633;28;1097;-58
2023/03/26 06:17:16;;;;;;;;;;;;;;;14.72;50.73;94921.91;5053871;28;1072;-58
2023/03/26 06:19:42;;;;;;;;;;;;;;;15.25;47.83;94910.78;5053652;28;1984;-58
2023/03/26 06:22:09;;;;;;;;;;;;;;;15.62;46.35;94914.97;5053527;28;1132;-59
2023/03/26 06:24:35;;;;;;;;;;;;;;;15.99;46.88;94919.16;5052181;28;1641;-59
2023/03/26 06:30:40;;;;;;;;;;;;;;;16.74;43.18;94929.16;5053750;28;1027;-59
2023/03/26 06:33:07;;;;;;;;;;;;;;;17.07;43.83;94929.19;5053363;28;1126;-59
2023/03/26 06:35:34;;;;;;;;;;;;;;;17.67;42.46;94939.19;5053227;28;1005;-59
2023/03/26 06:38:00;;;;;;;;;;;;;;;17.84;40.95;94950.38;5053207;28;1902;-58
2023/03/26 06:40:26;;;;;;;;;;;;;;;17.72;40.94;94950.19;5053143;28;1337;-58
2023/03/26 06:42:54;;;;;;;;;;;;;;;18.00;39.60;94952.66;5053241;28;1085;-58
2023/03/26 06:45:20;;;;;;;;;;;;;;;17.81;39.60;94945.38;5051900;28;1682;-58
2023/03/26 06:47:46;;;;;;;;;;;;;;;17.95;40.33;94947.06;5053524;28;1040;-58
2023/03/26 06:50:13;;;;;;;;;;;;;;;18.09;38.99;94962.19;5053294;28;999;-59
2023/03/26 06:52:39;;;;;;;;;;;;;;;18.04;40.09;94956.63;5053196;28;1009;-59
2023/03/26 06:55:07;;;;;;;;;;;;;;;18.24;38.75;94958.41;5052843;28;1000;-59
2023/03/26 06:57:33;;;;;;;;;;;;;;;18.54;38.86;94950.59;5053307;28;933;-59
2023/03/26 06:59:59;;;;;;;;;;;;;;;18.64;38.66;94947.41;5052942;28;2000;-59
2023/03/26 07:02:25;;;;;;;;;;;;;;;18.40;37.72;94949.84;5053033;28;1000;-59
2023/03/26 07:04:52;;;;;;;;;;;;;;;18.35;37.86;94949.63;5052862;28;1105;-59
2023/03/26 07:07:20;;;;;;;;;;;;;;;18.30;38.74;94944.03;5052917;28;1050;-57
2023/03/26 07:09:46;;;;;;;;;;;;;;;18.99;38.11;94947.88;5052871;28;1070;-57
2023/03/26 07:12:13;;;;;;;;;;;;;;;18.34;37.72;94948.81;5052873;28;1148;-62
2023/03/26 07:14:39;;;;;;;;;;;;;;;18.12;38.52;94950.97;5052985;28;1629;-63
2023/03/26 07:17:05;;;;;;;;;;;;;;;18.72;37.90;94955.28;5052862;28;1132;-63
2023/03/26 07:19:31;;;;;;;;;;;;;;;18.52;37.48;94956.22;5052331;28;1914;-62
2023/03/26 07:21:58;;;;;;;;;;;;;;;18.39;37.45;94947.34;5053142;28;977;-64
2023/03/26 07:24:24;;;;;;;;;;;;;;;18.80;37.47;94949.66;5051688;28;1687;-63
2023/03/26 07:27:02;;;;;;;;;;;;;;;19.08;37.25;94951.13;5052822;28;1116;-63
2023/03/26 07:29:44;;;;;;;;;;;;;;;19.44;35.85;94955.88;5052526;28;1252;-64
2023/03/26 07:32:29;;;;;;;;;;;;;;;19.94;35.05;94960.47;5052849;28;1011;-63
2023/03/26 07:34:58;;;;;;;;;;;;;;;19.96;34.68;94958.38;5052606;28;1030;-63
2023/03/26 07:37:30;;;;;;;;;;;;;;;19.76;35.68;94955.84;5052541;28;1013;-63
2023/03/26 07:39:59;;;;;;;;;;;;;;;19.72;35.00;94951.91;5052618;28;1910;-64
2023/03/26 07:42:44;;;;;;;;;;;;;;;19.86;35.46;94944.47;5052573;28;1577;-64
2023/03/26 07:45:18;;;;;;;;;;;;;;;19.94;35.12;94955.06;5052797;28;1033;-64
2023/03/26 07:47:45;;;;;;;;;;;;;;;19.85;35.04;94935.50;5052740;28;1020;-64
2023/03/26 07:50:16;;;;;;;;;;;;;;;20.30;33.51;94948.00;5051340;28;1047;-64
2023/03/26 07:52:42;;;;;;;;;;;;;;;20.20;35.28;94936.81;5052485;28;1159;-64
2023/03/26 07:55:11;;;;;;;;;;;;;;;20.25;34.41;94954.06;5052470;28;937;-64
2023/03/26 07:57:56;;;;;;;;;;;;;;;19.64;34.45;94955.72;5052769;28;1040;-64
2023/03/26 08:00:25;;;;;;;;;;;;;;;19.65;33.96;94951.97;5052233;28;1969;-64
2023/03/26 08:02:52;;;;;;;;;;;;;;;19.64;35.10;94944.03;5052369;28;1041;-64
2023/03/26 08:05:37;;;;;;;;;;;;;;;19.99;35.80;94943.50;5054009;28;1128;-64
2023/03/26 08:08:07;;;;;;;;;;;;;;;19.68;33.23;94950.69;5055929;28;949;-63
2023/03/26 08:10:42;;;;;;;;;;;;;;;19.95;35.06;94942.31;5055863;28;1046;-64
2023/03/26 08:13:26;;;;;;;;;;;;;;;20.18;34.42;94944.34;5055840;28;1025;-63
2023/03/26 08:15:53;;;;;;;;;;;;;;;19.58;34.30;94948.47;5055798;28;1030;-62
2023/03/26 08:18:40;;;;;;;;;;;;;;;19.18;33.84;94939.81;5055847;28;1903;-61
2023/03/26 08:21:12;;;;;;;;;;;;;;;19.42;33.95;94944.41;5055165;28;2561;-61
2023/03/26 08:23:48;;;;;;;;;;;;;;;19.60;33.92;94943.66;5054306;28;2720;-61
2023/03/26 08:26:29;;;;;;;;;;;;;;;20.29;34.29;94932.75;5055620;28;1050;-62
2023/03/26 08:28:55;;;;;;;;;;;;;;;20.12;32.86;94939.84;5055697;28;1314;-62
2023/03/26 08:31:26;;;;;;;;;;;;;;;20.16;32.80;94938.31;5055485;28;982;-61
2023/03/26 08:33:52;;;;;;;;;;;;;;;20.61;33.03;94932.59;5055493;28;1217;-62
2023/03/26 08:36:18;;;;;;;;;;;;;;;20.70;32.99;94938.53;5055496;28;1047;-61
2023/03/26 08:38:44;;;;;;;;;;;;;;;20.98;32.44;94951.50;5054168;28;2006;-62
2023/03/26 08:41:10;;;;;;;;;;;;;;;21.31;32.29;94947.50;5054130;28;1090;-61
2023/03/26 08:43:55;;;;;;;;;;;;;;;20.37;32.35;94951.44;5054231;28;1057;-61
2023/03/26 08:46:54;;;;;;;;;;;;;;;20.22;32.92;94940.97;5055406;28;1056;-61
2023/03/26 08:49:29;;;;;;;;;;;;;;;20.56;32.20;94941.38;5032474;28;1305;-61
2023/03/26 08:51:55;;;;;;;;;;;;;;;20.75;30.68;94941.38;5055448;28;1015;-62
2023/03/26 08:54:21;;;;;;;;;;;;;;;20.44;32.34;94938.59;5055301;28;1037;-62
2023/03/26 08:56:59;;;;;;;;;;;;;;;20.47;30.87;94938.16;5055339;28;950;-61
2023/03/26 08:59:28;;;;;;;;;;;;;;;20.48;31.25;94938.97;5054991;28;1985;-62
2023/03/26 09:02:00;;;;;;;;;;;;;;;20.64;31.13;94932.13;5054856;28;1120;-61
2023/03/26 09:04:45;;;;;;;;;;;;;;;20.12;31.01;94927.09;5054930;28;1045;-62
2023/03/26 09:07:23;;;;;;;;;;;;;;;20.43;30.85;94923.38;5054826;28;1060;-61
2023/03/26 09:09:52;;;;;;;;;;;;;;;19.85;33.10;94913.00;5054887;28;1120;-59
2023/03/26 09:12:30;;;;;;;;;;;;;;;19.83;32.10;94909.66;5054713;28;1065;-60
2023/03/26 09:15:15;;;;;;;;;;;;;;;19.89;32.25;94914.19;5054806;28;1045;-60
2023/03/26 09:17:51;;;;;;;;;;;;;;;19.81;31.02;94906.34;5053854;28;1112;-61
2023/03/26 09:20:38;;;;;;;;;;;;;;;20.19;31.81;94908.84;5054854;28;1975;-60
2023/03/26 09:23:22;;;;;;;;;;;;;;;20.43;33.01;94908.97;5033349;28;1621;-63
2023/03/26 09:25:48;;;;;;;;;;;;;;;20.75;31.19;94915.03;5054579;28;1037;-60
2023/03/26 09:28:33;;;;;;;;;;;;;;;20.35;31.13;94901.13;5054426;28;1121;-61
2023/03/26 09:30:59;;;;;;;;;;;;;;;20.49;32.36;94897.22;5054660;28;962;-60
2023/03/26 09:33:26;;;;;;;;;;;;;;;20.88;31.73;94894.19;5054538;28;973;-62
2023/03/26 09:35:54;;;;;;;;;;;;;;;21.61;31.03;94888.44;5054690;28;1032;-62
2023/03/26 09:38:33;;;;;;;;;;;;;;;22.01;29.16;94893.13;5054457;28;1910;-62
2023/03/26 09:41:02;;;;;;;;;;;;;;;21.61;30.21;94893.06;5053167;28;1045;-62
2023/03/26 09:43:41;;;;;;;;;;;;;;;21.24;29.58;94894.03;5054202;28;1093;-61
2023/03/26 09:46:24;;;;;;;;;;;;;;;20.89;30.39;94883.09;5053176;28;1058;-62
2023/03/26 09:48:56;;;;;;;;;;;;;;;20.75;29.97;94878.91;5054454;28;1052;-62
2023/03/26 09:51:32;;;;;;;;;;;;;;;20.58;30.48;94881.41;5054171;28;1112;-62
2023/03/26 09:54:22;;;;;;;;;;;;;;;20.72;30.71;94873.94;5054159;28;1062;-62
2023/03/26 09:57:01;;;;;;;;;;;;;;;20.72;30.45;94869.34;5054304;28;993;-62
2023/03/26 09:59:41;;;;;;;;;;;;;;;20.74;29.86;94864.50;5053861;28;1910;-62
2023/03/26 10:02:07;;;;;;;;;;;;;;;21.17;30.35;94860.72;5052998;28;882;-62
2023/03/26 10:04:39;;;;;;;;;;;;;;;21.66;29.73;94859.69;5053836;28;978;-62
2023/03/26 10:07:12;;;;;;;;;;;;;;;21.67;28.03;94855.91;5054164;28;969;-62
2023/03/26 10:09:38;;;;;;;;;;;;;;;21.05;28.21;94857.13;5054178;28;1059;-62
2023/03/26 10:12:04;;;;;;;;;;;;;;;20.86;29.36;94840.06;5053750;28;1116;-62
2023/03/26 10:14:53;;;;;;;;;;;;;;;20.79;28.26;94837.47;5052802;28;969;-62
2023/03/26 10:17:35;;;;;;;;;;;;;;;20.84;29.98;94829.44;5053840;28;970;-61
2023/03/26 10:20:16;;;;;;;;;;;;;;;20.67;28.99;94821.13;5052736;28;1906;-60
2023/03/26 10:22:51;;;;;;;;;;;;;;;20.26;28.72;94822.72;5053835;28;1004;-61
2023/03/26 10:25:37;;;;;;;;;;;;;;;20.86;29.67;94818.34;5053429;28;1530;-62
2023/03/26 10:28:19;;;;;;;;;;;;;;;21.75;29.72;94820.16;5053421;28;1087;-62
2023/03/26 10:31:04;;;;;;;;;;;;;;;21.91;27.82;94819.44;5053780;28;1021;-62
2023/03/26 10:33:39;;;;;;;;;;;;;;;21.52;29.27;94813.69;5053352;28;1053;-63
2023/03/26 10:36:11;;;;;;;;;;;;;;;21.42;28.57;94810.72;5053684;28;1021;-64
2023/03/26 10:38:52;;;;;;;;;;;;;;;21.28;29.30;94817.44;5053553;28;1995;-62
2023/03/26 10:41:21;;;;;;;;;;;;;;;20.93;27.75;94820.97;5053352;28;989;-62
2023/03/26 10:43:47;;;;;;;;;;;;;;;20.86;28.35;94812.91;5053351;28;966;-64
2023/03/26 10:46:13;;;;;;;;;;;;;;;20.67;29.79;94804.81;5052994;28;1032;-60
2023/03/26 10:48:52;;;;;;;;;;;;;;;20.83;27.85;94806.06;5053239;28;1123;-61
2023/03/26 10:51:18;;;;;;;;;;;;;;;20.31;27.94;94808.47;5053217;28;972;-63
2023/03/26 10:53:55;;;;;;;;;;;;;;;20.51;28.19;94797.31;5052112;28;914;-64
2023/03/26 10:56:21;;;;;;;;;;;;;;;20.56;27.82;94799.34;5053320;28;1025;-64
2023/03/26 10:58:48;;;;;;;;;;;;;;;20.36;27.82;94802.34;5052930;28;1922;-57
2023/03/26 11:01:37;;;;;;;;;;;;;;;20.11;27.89;94807.91;5053042;28;1025;-55
2023/03/26 11:04:21;;;;;;;;;;;;;;;20.32;28.20;94793.00;5047489;28;1182;-60
2023/03/26 11:07:03;;;;;;;;;;;;;;;20.17;26.86;94796.97;5053068;28;1124;-61
2023/03/26 11:09:33;;;;;;;;;;;;;;;20.55;28.48;94789.56;5053341;28;1039;-61
2023/03/26 11:12:03;;;;;;;;;;;;;;;20.72;28.66;94789.75;5053314;28;1039;-61
2023/03/26 11:14:39;;;;;;;;;;;;;;;20.82;28.48;94785.38;5051972;28;1025;-61
2023/03/26 11:17:09;;;;;;;;;;;;;;;20.81;27.71;94777.44;5053062;28;1024;-60
2023/03/26 11:19:35;;;;;;;;;;;;;;;20.63;27.42;94776.47;5052746;28;1910;-60
2023/03/26 11:22:15;;;;;;;;;;;;;;;20.82;27.18;94765.53;5052882;28;1037;-61
2023/03/26 11:24:47;;;;;;;;;;;;;;;20.91;28.25;94764.13;5051611;28;1562;-61
2023/03/26 11:27:13;;;;;;;;;;;;;;;20.96;28.84;94752.53;5053160;28;1029;-61
2023/03/26 11:29:45;;;;;;;;;;;;;;;20.78;27.89;94758.91;5052689;28;1208;-61
2023/03/26 11:32:14;;;;;;;;;;;;;;;20.95;29.09;94750.91;5052684;28;1065;-61
2023/03/26 11:34:43;;;;;;;;;;;;;;;20.99;28.09;94749.38;5052681;28;1287;-61
2023/03/26 11:37:32;;;;;;;;;;;;;;;21.12;29.17;94732.81;5052980;28;1021;-60
2023/03/26 11:40:01;;;;;;;;;;;;;;;21.02;28.89;94738.03;5034687;28;1918;-61
2023/03/26 11:42:28;;;;;;;;;;;;;;;20.76;29.31;94731.16;5056482;28;1117;-61
2023/03/26 11:44:59;;;;;;;;;;;;;;;20.24;28.15;94729.00;5056516;28;1034;-60
2023/03/26 11:47:30;;;;;;;;;;;;;;;19.85;29.96;94723.09;5056507;28;973;-62
2023/03/26 11:49:57;;;;;;;;;;;;;;;20.28;29.70;94716.66;5056384;28;1085;-62
2023/03/26 11:52:25;;;;;;;;;;;;;;;20.59;28.64;94717.41;5055268;28;1013;-62
2023/03/26 11:54:51;;;;;;;;;;;;;;;20.56;28.05;94712.44;5056427;28;957;-62
2023/03/26 11:57:29;;;;;;;;;;;;;;;20.78;29.24;94710.03;5056125;28;1045;-62
2023/03/26 11:59:58;;;;;;;;;;;;;;;20.65;28.89;94702.91;5054899;28;1910;-61
2023/03/26 12:02:31;;;;;;;;;;;;;;;20.29;28.76;94702.81;5056020;28;1128;-61
2023/03/26 12:05:07;;;;;;;;;;;;;;;20.29;28.92;94691.13;5056293;28;1092;-61
2023/03/26 12:07:33;;;;;;;;;;;;;;;20.27;27.97;94687.84;5056089;28;1060;-61
2023/03/26 12:10:01;;;;;;;;;;;;;;;20.21;28.95;94681.44;5056066;28;1028;-62
2023/03/26 12:12:31;;;;;;;;;;;;;;;20.35;28.41;94673.09;5056118;28;977;-62
2023/03/26 12:14:58;;;;;;;;;;;;;;;20.06;27.58;94681.88;5055900;28;1108;-61
2023/03/26 12:17:28;;;;;;;;;;;;;;;19.74;27.02;94672.34;5055829;28;1070;-62
2023/03/26 12:19:54;;;;;;;;;;;;;;;19.55;27.37;94664.19;5055997;28;1987;-62
2023/03/26 12:22:42;;;;;;;;;;;;;;;19.50;26.94;94664.06;5055797;28;1055;-62
2023/03/26 12:25:08;;;;;;;;;;;;;;;19.94;28.55;94661.19;5055910;28;1546;-62
2023/03/26 12:27:36;;;;;;;;;;;;;;;20.07;27.37;94667.25;5055669;28;1136;-62
2023/03/26 12:30:20;;;;;;;;;;;;;;;19.85;28.43;94661.53;5055404;28;1545;-62
2023/03/26 12:32:48;;;;;;;;;;;;;;;19.76;28.64;94649.34;5055704;28;1031;-62
2023/03/26 12:35:18;;;;;;;;;;;;;;;19.92;28.43;94647.03;5054247;28;1042;-62
2023/03/26 12:37:45;;;;;;;;;;;;;;;20.04;28.02;94643.28;5055735;28;982;-62
2023/03/26 12:40:20;;;;;;;;;;;;;;;20.19;27.38;94634.72;5055360;28;1902;-62
2023/03/26 12:42:51;;;;;;;;;;;;;;;20.02;28.13;94631.84;5055730;28;977;-63
2023/03/26 12:45:40;;;;;;;;;;;;;;;20.13;28.30;94622.09;5055217;28;1053;-63
2023/03/26 12:48:10;;;;;;;;;;;;;;;20.33;28.08;94623.63;5049828;28;1184;-63
2023/03/26 12:50:45;;;;;;;;;;;;;;;20.17;26.59;94630.59;5055516;28;1028;-62
2023/03/26 12:53:30;;;;;;;;;;;;;;;20.33;27.37;94624.44;5054812;28;1056;-63
2023/03/26 12:56:02;;;;;;;;;;;;;;;20.44;28.49;94631.78;5055210;28;1057;-63
2023/03/26 12:58:34;;;;;;;;;;;;;;;20.30;26.70;94619.50;5054985;28;1987;-63
2023/03/26 13:01:10;;;;;;;;;;;;;;;20.32;27.21;94614.69;5055240;28;1044;-63
2023/03/26 13:04:02;;;;;;;;;;;;;;;20.52;27.84;94608.06;5055103;28;1038;-63
2023/03/26 13:06:49;;;;;;;;;;;;;;;20.49;27.15;94609.38;5038977;28;1408;-63
2023/03/26 13:09:34;;;;;;;;;;;;;;;20.55;27.39;94602.16;5055199;28;1064;-63
2023/03/26 13:12:07;;;;;;;;;;;;;;;20.43;26.70;94592.13;5055207;28;1314;-63
2023/03/26 13:14:43;;;;;;;;;;;;;;;20.47;27.80;94585.16;5055056;28;1154;-63
2023/03/26 13:17:09;;;;;;;;;;;;;;;20.46;27.58;94588.94;5055105;28;985;-63
2023/03/26 13:19:44;;;;;;;;;;;;;;;20.50;27.50;94580.31;5054863;28;1983;-63
2023/03/26 13:22:28;;;;;;;;;;;;;;;20.56;28.05;94582.09;5055009;28;1008;-63